You are not logged in, Click here to log in
機場資訊:WADD Welcome to Taiwan Airways 台灣虛擬航空
ICAO: WADD Country: 印度尼西亞-尼峇里省的一座國際機場,為峇里島唯一的國際機場
Latitude: -8.74672 Longitude: 115.167
Total Arrivals: 16 Total Departures: 17
Latest Arrival: 5J638 (RPVP-WADD)鈺友. 陳 Latest Departure: VA46 (WADD-YPDN)鈺友. 陳
Scenery:
METAR : WADD 170430Z 11008KT 9999 FEW017 32/23 Q1010 NOSIG

伍拉·賴國際機場 DPS